createdAt,value
2023-01-08T00:01:36.575Z,9.10
2023-01-08T00:06:39.794Z,7.07
2023-01-08T00:11:47.819Z,20.52
2023-01-08T00:16:58.633Z,12.97
2023-01-08T00:22:04.855Z,5.53
2023-01-08T00:27:09.508Z,14.70
2023-01-08T00:32:15.711Z,10.87
2023-01-08T00:37:20.856Z,8.23
2023-01-08T00:42:24.187Z,11.60
2023-01-08T00:47:36.102Z,10.75
2023-01-08T00:52:42.488Z,8.00
2023-01-08T00:57:50.634Z,5.60
2023-01-08T01:02:58.553Z,11.40
2023-01-08T01:08:07.095Z,6.13
2023-01-08T01:13:13.720Z,10.87
2023-01-08T01:18:26.049Z,8.53
2023-01-08T01:23:31.579Z,9.83
2023-01-08T01:28:39.533Z,9.13
2023-01-08T01:33:48.552Z,13.30
2023-01-08T01:38:58.187Z,9.73
2023-01-08T01:44:48.529Z,9.17
2023-01-08T01:50:03.491Z,8.90
2023-01-08T01:55:20.040Z,7.17
2023-01-08T02:00:29.505Z,11.37
2023-01-08T02:06:07.348Z,6.93
2023-01-08T02:12:17.111Z,8.63
2023-01-08T02:17:47.334Z,7.57
2023-01-08T02:23:33.914Z,9.10
2023-01-08T02:29:04.157Z,11.63
2023-01-08T02:34:18.273Z,8.43
2023-01-08T02:39:39.457Z,8.97
2023-01-08T02:45:22.815Z,7.00
2023-01-08T02:50:34.228Z,8.73
2023-01-08T02:55:47.871Z,5.70
2023-01-08T03:00:52.615Z,8.33
2023-01-08T03:06:13.203Z,6.83
2023-01-08T03:11:39.191Z,8.17
2023-01-08T03:16:56.158Z,7.07
2023-01-08T03:22:08.313Z,6.43
2023-01-08T03:27:24.170Z,7.27
2023-01-08T03:32:35.262Z,6.07
2023-01-08T03:37:55.140Z,8.47
2023-01-08T03:42:58.518Z,8.57
2023-01-08T03:48:07.631Z,9.30
2023-01-08T03:53:15.056Z,10.40
2023-01-08T03:58:18.344Z,8.10
2023-01-08T04:03:30.483Z,8.48
2023-01-08T04:08:40.657Z,10.67
2023-01-08T04:13:56.756Z,9.03
2023-01-08T04:19:02.598Z,9.70
2023-01-08T04:24:09.692Z,9.40
2023-01-08T04:29:23.594Z,7.83
2023-01-08T04:34:26.765Z,4.87
2023-01-08T04:39:33.219Z,10.07
2023-01-08T04:44:44.455Z,7.10
2023-01-08T04:49:52.277Z,6.07
2023-01-08T04:54:55.737Z,9.63
2023-01-08T05:00:06.513Z,7.38
2023-01-08T05:05:26.460Z,9.17
2023-01-08T05:10:35.886Z,7.40
2023-01-08T05:15:45.241Z,5.13
2023-01-08T05:21:02.971Z,7.93
2023-01-08T05:26:14.985Z,5.67
2023-01-08T05:31:23.059Z,7.07
2023-01-08T05:36:41.306Z,9.03
2023-01-08T05:41:44.770Z,10.20
2023-01-08T05:46:48.821Z,4.97
2023-01-08T05:51:52.653Z,10.93
2023-01-08T05:57:09.716Z,10.23
2023-01-08T06:02:13.253Z,8.40
2023-01-08T06:07:21.948Z,7.23
2023-01-08T06:12:28.186Z,6.57
2023-01-08T06:17:41.920Z,8.90
2023-01-08T06:22:48.758Z,12.53
2023-01-08T06:28:03.200Z,11.67
2023-01-08T06:33:09.954Z,12.80
2023-01-08T06:38:18.551Z,6.30
2023-01-08T06:43:24.446Z,10.43
2023-01-08T06:48:31.264Z,9.87
2023-01-08T06:53:48.006Z,10.20
2023-01-08T06:58:54.776Z,10.45
2023-01-08T07:04:07.803Z,10.60
2023-01-08T07:09:15.884Z,12.13
2023-01-08T07:14:21.751Z,12.13
2023-01-08T07:19:33.226Z,11.23
2023-01-08T07:24:43.828Z,14.67
2023-01-08T07:29:52.639Z,14.93
2023-01-08T07:35:01.899Z,32.87
2023-01-08T07:40:07.605Z,33.63
2023-01-08T07:45:19.452Z,15.57
2023-01-08T07:50:27.313Z,18.00
2023-01-08T07:55:48.175Z,11.47
2023-01-08T08:01:01.218Z,14.75
2023-01-08T08:06:07.396Z,13.50
2023-01-08T08:11:18.496Z,10.57
2023-01-08T08:16:31.963Z,11.77
2023-01-08T08:21:55.580Z,15.97
2023-01-08T08:27:03.511Z,12.43
2023-01-08T08:32:11.180Z,21.40
2023-01-08T08:37:18.057Z,15.83
2023-01-08T08:42:31.038Z,16.70
2023-01-08T08:47:39.340Z,15.53
2023-01-08T08:53:01.176Z,11.20
2023-01-08T08:58:14.063Z,12.87
2023-01-08T09:03:23.675Z,12.80
2023-01-08T09:08:35.672Z,11.27
2023-01-08T09:13:45.597Z,19.80
2023-01-08T09:18:54.767Z,20.80
2023-01-08T09:24:03.649Z,17.83
2023-01-08T09:29:14.474Z,16.07
2023-01-08T09:34:18.337Z,16.23
2023-01-08T09:39:26.023Z,13.77
2023-01-08T09:44:36.249Z,16.40
2023-01-08T09:50:03.061Z,15.33
2023-01-08T09:55:32.438Z,14.33
2023-01-08T10:00:42.619Z,19.10
2023-01-08T10:05:52.027Z,10.63
2023-01-08T10:11:03.932Z,12.77
2023-01-08T10:16:37.321Z,12.03
2023-01-08T10:22:20.266Z,12.80
2023-01-08T10:27:29.136Z,12.47
2023-01-08T10:32:47.070Z,13.43
2023-01-08T10:37:56.801Z,23.63
2023-01-08T10:43:22.847Z,18.73
2023-01-08T10:48:51.056Z,13.93
2023-01-08T10:54:15.830Z,17.67
2023-01-08T10:59:35.469Z,12.73
2023-01-08T11:04:54.204Z,13.37
2023-01-08T11:10:05.409Z,20.30
2023-01-08T11:15:26.010Z,14.00
2023-01-08T11:20:33.524Z,11.70
2023-01-08T11:26:16.285Z,9.17
2023-01-08T11:31:36.062Z,16.23
2023-01-08T11:37:15.257Z,21.77
2023-01-08T11:42:57.043Z,18.20
2023-01-08T11:48:34.129Z,15.70
2023-01-08T11:54:32.142Z,14.90
2023-01-08T12:00:14.405Z,18.03
2023-01-08T12:05:46.749Z,11.93
2023-01-08T12:11:34.709Z,15.83
2023-01-08T12:17:24.752Z,15.17
2023-01-08T12:22:39.026Z,14.73
2023-01-08T12:28:19.266Z,13.23
2023-01-08T12:33:39.031Z,19.27
2023-01-08T12:38:51.731Z,14.03
2023-01-08T12:44:12.429Z,13.20
2023-01-08T12:49:36.095Z,12.77
2023-01-08T12:54:56.888Z,19.70
2023-01-08T13:00:34.087Z,13.50
2023-01-08T13:05:52.548Z,32.70
2023-01-08T13:11:05.649Z,36.50
2023-01-08T13:16:26.948Z,16.00
2023-01-08T13:22:06.345Z,14.17
2023-01-08T13:27:22.197Z,17.05
2023-01-08T13:32:51.088Z,17.87
2023-01-08T13:38:22.362Z,13.57
2023-01-08T13:43:41.270Z,17.03
2023-01-08T13:49:38.800Z,21.87
2023-01-08T13:54:45.784Z,17.63
2023-01-08T13:59:59.514Z,16.07
2023-01-08T14:05:12.551Z,17.40
2023-01-08T14:10:17.953Z,19.90
2023-01-08T14:15:36.519Z,20.37
2023-01-08T14:20:42.623Z,17.00
2023-01-08T14:25:53.129Z,16.23
2023-01-08T14:31:06.146Z,23.93
2023-01-08T14:36:16.969Z,17.93
2023-01-08T14:41:55.173Z,16.50
2023-01-08T14:47:04.044Z,22.63
2023-01-08T14:52:18.820Z,12.97
2023-01-08T14:57:34.107Z,17.00
2023-01-08T15:02:43.033Z,19.77
2023-01-08T15:08:22.005Z,19.80
2023-01-08T15:13:41.624Z,17.33
2023-01-08T15:19:17.720Z,23.67
2023-01-08T15:24:45.342Z,16.60
2023-01-08T15:30:01.816Z,14.30
2023-01-08T15:35:21.391Z,18.70
2023-01-08T15:40:26.848Z,17.13
2023-01-08T15:45:34.608Z,17.57
2023-01-08T15:50:42.809Z,20.60
2023-01-08T15:55:55.848Z,20.30
2023-01-08T16:01:10.212Z,16.03
2023-01-08T16:06:28.663Z,19.53
2023-01-08T16:11:42.247Z,16.50
2023-01-08T16:16:52.990Z,17.70
2023-01-08T16:22:00.366Z,19.33
2023-01-08T16:27:07.244Z,17.50
2023-01-08T16:32:11.474Z,17.23
2023-01-08T16:37:17.679Z,15.15
2023-01-08T16:42:26.185Z,25.63
2023-01-08T16:47:36.958Z,26.47
2023-01-08T16:57:55.544Z,19.97
2023-01-08T17:03:09.876Z,16.80
2023-01-08T17:08:23.229Z,20.10
2023-01-08T17:13:29.207Z,23.30
2023-01-08T17:18:40.059Z,20.20
2023-01-08T17:23:53.504Z,20.57
2023-01-08T17:29:03.220Z,18.53
2023-01-08T17:34:15.049Z,21.23
2023-01-08T17:39:25.005Z,27.98
2023-01-08T17:44:33.153Z,23.97
2023-01-08T17:49:45.660Z,23.60
2023-01-08T17:55:10.519Z,28.63
2023-01-08T18:00:25.551Z,25.17
2023-01-08T18:05:34.888Z,18.97
2023-01-08T18:10:49.163Z,27.13
2023-01-08T18:16:16.067Z,25.00
2023-01-08T18:21:28.085Z,18.83
2023-01-08T18:26:43.183Z,19.47
2023-01-08T18:31:46.814Z,22.27
2023-01-08T18:36:49.471Z,23.43
2023-01-08T18:42:10.975Z,18.80
2023-01-08T18:47:14.875Z,18.73
2023-01-08T18:52:17.414Z,23.55
2023-01-08T18:57:20.216Z,21.07
2023-01-08T19:02:28.102Z,31.10
2023-01-08T19:07:32.144Z,24.03
2023-01-08T19:12:35.158Z,29.90
2023-01-08T19:17:37.757Z,21.23
2023-01-08T19:22:40.373Z,19.83
2023-01-08T19:27:43.009Z,16.02
2023-01-08T19:32:47.588Z,15.97
2023-01-08T19:37:50.202Z,20.50
2023-01-08T19:43:11.159Z,22.90
2023-01-08T19:48:14.129Z,24.07
2023-01-08T19:53:16.755Z,18.33
2023-01-08T19:58:20.506Z,23.65
2023-01-08T20:03:29.340Z,22.42
2023-01-08T20:08:31.928Z,16.53
2023-01-08T20:13:36.202Z,21.47
2023-01-08T20:18:40.435Z,16.33
2023-01-08T20:23:44.751Z,20.10
2023-01-08T20:28:49.253Z,21.05
2023-01-08T20:38:59.451Z,21.43
2023-01-08T20:44:06.712Z,27.50
2023-01-08T20:49:14.420Z,15.95
2023-01-08T20:54:17.927Z,22.83
2023-01-08T20:59:20.498Z,16.97
2023-01-08T21:04:23.336Z,15.20
2023-01-08T21:09:25.980Z,20.83
2023-01-08T21:14:28.542Z,19.23
2023-01-08T21:19:31.391Z,22.23
2023-01-08T21:24:34.243Z,14.33
2023-01-08T21:29:36.900Z,20.50
2023-01-08T21:34:39.514Z,23.73
2023-01-08T21:39:43.259Z,19.17
2023-01-08T21:45:04.327Z,21.00
2023-01-08T21:50:08.529Z,21.43
2023-01-08T21:55:11.407Z,16.55
2023-01-08T22:00:15.315Z,18.37
2023-01-08T22:05:18.361Z,17.80
2023-01-08T22:10:21.348Z,14.20
2023-01-08T22:15:23.963Z,17.63
2023-01-08T22:20:26.613Z,13.75
2023-01-08T22:25:30.295Z,19.08
2023-01-08T22:30:33.937Z,22.77
2023-01-08T22:35:38.533Z,20.60
2023-01-08T22:45:43.558Z,28.42
2023-01-08T22:50:46.264Z,15.85
2023-01-08T22:55:49.160Z,19.83
2023-01-08T23:00:51.783Z,17.33
2023-01-08T23:06:04.355Z,19.70
2023-01-08T23:11:08.733Z,20.52
2023-01-08T23:16:14.372Z,17.05
2023-01-08T23:21:21.966Z,13.00
2023-01-08T23:26:29.682Z,20.17
2023-01-08T23:31:32.560Z,20.58
2023-01-08T23:36:35.628Z,19.13
2023-01-08T23:41:39.109Z,15.10
2023-01-08T23:46:41.686Z,17.52
2023-01-08T23:51:44.241Z,13.73
2023-01-08T23:56:46.822Z,19.57
